Time;durP1;ratioP1;P1;durP2;ratioP2;P2;SDS_P1;SDS_P2;PMS_P1;PMS_P2;Temp;Humidity;BMP_temperature;BMP_pressure;BME280_temperature;BME280_humidity;BME280_pressure;Samples;Min_cycle;Max_cycle;Signal;HPM_P1;HPM_P2
2024/01/05 00:01:27;;;;;;;27.00;22.58;;;;;;;3.44;100.00;95310.13;5050525;28;20074;-77
2024/01/05 00:03:53;;;;;;;24.80;13.77;;;;;;;3.53;100.00;95299.06;5047788;28;20059;-78
2024/01/05 00:06:19;;;;;;;54.65;27.67;;;;;;;3.59;100.00;95300.41;5048343;28;20052;-77
2024/01/05 00:08:44;;;;;;;29.77;19.92;;;;;;;3.50;100.00;95290.66;5052734;28;20111;-77
2024/01/05 00:11:17;;;;;;;30.90;18.48;;;;;;;3.49;100.00;95287.22;5042823;28;20025;-77
2024/01/05 00:13:42;;;;;;;24.60;19.75;;;;;;;3.47;100.00;95290.88;5049245;28;20013;-76
2024/01/05 00:16:07;;;;;;;22.70;17.63;;;;;;;3.50;100.00;95290.66;5050999;28;20021;-77
2024/01/05 00:18:33;;;;;;;39.25;28.63;;;;;;;3.53;100.00;95288.66;5049697;28;20120;-76
2024/01/05 00:20:58;;;;;;;26.45;21.65;;;;;;;3.50;100.00;95291.47;5047514;28;20032;-76
2024/01/05 00:23:23;;;;;;;25.20;20.08;;;;;;;3.54;100.00;95289.50;5048376;28;20053;-76
2024/01/05 00:25:49;;;;;;;24.13;20.05;;;;;;;3.66;100.00;95280.84;5043847;28;20082;-76
2024/01/05 00:28:14;;;;;;;22.02;19.58;;;;;;;3.58;100.00;95280.53;5045506;28;20521;-77
2024/01/05 00:30:39;;;;;;;14.93;10.90;;;;;;;3.78;100.00;95278.28;5050721;28;20021;-76
2024/01/05 00:33:05;;;;;;;13.20;11.50;;;;;;;3.70;100.00;95273.63;5043695;28;20396;-76
2024/01/05 00:35:30;;;;;;;17.80;12.98;;;;;;;3.65;100.00;95271.38;5049236;28;20027;-77
2024/01/05 00:37:56;;;;;;;18.85;13.15;;;;;;;3.62;100.00;95252.50;5046675;28;20033;-77
2024/01/05 00:40:21;;;;;;;21.35;14.15;;;;;;;3.64;100.00;95248.03;5047525;28;20068;-77
2024/01/05 00:42:46;;;;;;;16.75;13.88;;;;;;;3.67;100.00;95247.81;5048611;28;20107;-76
2024/01/05 00:45:12;;;;;;;23.33;18.35;;;;;;;3.68;100.00;95249.47;5049649;28;20448;-76
2024/01/05 00:47:37;;;;;;;23.95;17.58;;;;;;;3.69;100.00;95244.16;5052553;28;20053;-76
2024/01/05 00:50:03;;;;;;;29.48;20.48;;;;;;;3.68;100.00;95242.50;5050249;28;20052;-76
2024/01/05 00:52:28;;;;;;;38.88;26.35;;;;;;;3.70;100.00;95253.63;5046327;28;20029;-77
2024/01/05 00:54:54;;;;;;;43.75;29.30;;;;;;;3.70;100.00;95250.19;5047730;28;20029;-77
2024/01/05 00:57:19;;;;;;;35.17;25.88;;;;;;;3.68;100.00;95257.28;5048420;28;20048;-76
2024/01/05 00:59:45;;;;;;;39.85;24.88;;;;;;;3.68;100.00;95239.91;5049777;28;20026;-77
2024/01/05 01:02:10;;;;;;;36.60;31.52;;;;;;;3.71;100.00;95238.81;5044362;28;20079;-76
2024/01/05 01:04:36;;;;;;;31.02;27.02;;;;;;;3.75;100.00;95244.66;5049868;28;20028;-77
2024/01/05 01:07:01;;;;;;;42.00;31.48;;;;;;;3.68;100.00;95245.09;5050309;28;20032;-77
2024/01/05 01:09:26;;;;;;;21.60;14.50;;;;;;;3.77;100.00;95245.38;5046289;28;20025;-77
2024/01/05 01:11:52;;;;;;;14.68;10.40;;;;;;;3.83;100.00;95230.13;5047907;28;20664;-77
2024/01/05 01:14:18;;;;;;;16.90;13.55;;;;;;;3.87;100.00;95233.34;5051144;28;20033;-76
2024/01/05 01:16:43;;;;;;;13.23;10.38;;;;;;;3.72;100.00;95230.06;5050475;28;20028;-76
2024/01/05 01:19:08;;;;;;;14.85;12.90;;;;;;;3.69;100.00;95220.72;5045280;28;20028;-76
2024/01/05 01:21:34;;;;;;;15.88;9.60;;;;;;;3.65;100.00;95216.69;5051777;28;20078;-77
2024/01/05 01:23:59;;;;;;;12.93;11.52;;;;;;;3.69;100.00;95218.13;5045146;28;20100;-76
2024/01/05 01:26:25;;;;;;;13.07;9.82;;;;;;;3.66;100.00;95209.69;5047163;28;20093;-77
2024/01/05 01:28:50;;;;;;;18.25;9.85;;;;;;;3.72;100.00;95220.50;5045408;28;20484;-77
2024/01/05 01:31:15;;;;;;;11.77;7.45;;;;;;;3.73;100.00;95219.56;5050699;28;20039;-77
2024/01/05 01:33:41;;;;;;;11.93;8.65;;;;;;;3.73;100.00;95224.75;5046157;28;20051;-76
2024/01/05 01:36:06;;;;;;;9.77;7.93;;;;;;;3.73;100.00;95221.31;5050797;28;20028;-76
2024/01/05 01:38:32;;;;;;;10.48;8.00;;;;;;;3.77;100.00;95224.53;5047750;28;20029;-76
2024/01/05 01:40:57;;;;;;;11.25;8.15;;;;;;;3.76;100.00;95215.06;5052573;28;20389;-76
2024/01/05 01:43:25;;;;;;;13.05;10.30;;;;;;;3.77;100.00;95208.91;5052109;28;20541;-76
2024/01/05 01:45:52;;;;;;;13.65;11.88;;;;;;;3.79;100.00;95197.44;5048203;28;20515;-76
2024/01/05 01:48:19;;;;;;;17.60;12.23;;;;;;;3.75;100.00;95189.97;5048410;28;20103;-76
2024/01/05 01:50:46;;;;;;;16.92;11.55;;;;;;;3.72;100.00;95188.41;5048521;28;20024;-76
2024/01/05 01:53:13;;;;;;;15.57;9.75;;;;;;;3.68;100.00;95182.63;5048666;28;20108;-77
2024/01/05 01:55:40;;;;;;;15.00;10.05;;;;;;;3.71;100.00;95186.75;5050069;28;20056;-76
2024/01/05 01:58:06;;;;;;;15.48;9.18;;;;;;;3.72;100.00;95185.81;5047257;28;20056;-77
2024/01/05 02:00:32;;;;;;;15.57;9.40;;;;;;;3.66;100.00;95189.72;5046181;28;20816;-77
2024/01/05 02:02:59;;;;;;;12.57;8.98;;;;;;;3.64;100.00;95190.75;5047256;28;20026;-77
2024/01/05 02:05:25;;;;;;;10.82;7.93;;;;;;;3.64;100.00;95180.34;5046084;28;20742;-77
2024/01/05 02:07:50;;;;;;;12.82;7.65;;;;;;;3.63;100.00;95174.28;5047458;28;20017;-77
2024/01/05 02:10:16;;;;;;;9.48;7.32;;;;;;;3.62;100.00;95164.81;5052689;28;20017;-78
2024/01/05 02:12:42;;;;;;;9.35;7.03;;;;;;;3.62;100.00;95167.41;5051243;28;20048;-77
2024/01/05 02:15:08;;;;;;;12.38;8.45;;;;;;;3.65;100.00;95169.81;5051286;28;20032;-77
2024/01/05 02:17:34;;;;;;;12.65;8.38;;;;;;;3.68;100.00;95161.78;5044397;28;20041;-77
2024/01/05 02:20:00;;;;;;;13.52;8.88;;;;;;;3.66;100.00;95163.69;5044567;28;20104;-78
2024/01/05 02:22:29;;;;;;;13.02;8.88;;;;;;;3.64;100.00;95170.75;5049650;28;20024;-77
2024/01/05 02:24:59;;;;;;;12.88;8.50;;;;;;;3.67;100.00;95159.28;5048393;28;20035;-79
2024/01/05 02:27:25;;;;;;;13.25;8.07;;;;;;;3.66;100.00;95162.81;5045283;28;20029;-77
2024/01/05 02:29:51;;;;;;;14.00;7.93;;;;;;;3.67;100.00;95144.50;5050550;28;20025;-77
2024/01/05 02:32:18;;;;;;;16.98;9.40;;;;;;;3.69;100.00;95139.16;5043922;28;20049;-77
2024/01/05 02:34:43;;;;;;;12.68;8.85;;;;;;;3.72;100.00;95134.56;5048273;28;20535;-77
2024/01/05 02:37:09;;;;;;;14.23;9.50;;;;;;;3.68;100.00;95130.53;5043021;28;20025;-77
2024/01/05 02:39:35;;;;;;;25.85;18.75;;;;;;;3.66;100.00;95142.84;5051375;28;20589;-77
2024/01/05 02:42:00;;;;;;;17.02;12.07;;;;;;;3.64;100.00;95139.50;5050042;28;20117;-77
2024/01/05 02:44:26;;;;;;;18.30;12.63;;;;;;;3.67;100.00;95143.66;5055477;28;20063;-77
2024/01/05 02:46:51;;;;;;;16.08;14.43;;;;;;;3.62;100.00;95141.38;5047899;28;20029;-77
2024/01/05 02:49:16;;;;;;;20.00;16.88;;;;;;;3.64;100.00;95136.09;5051976;28;20116;-78
2024/01/05 02:51:42;;;;;;;14.90;13.32;;;;;;;3.62;100.00;95141.38;5052655;28;20033;-77
2024/01/05 02:54:08;;;;;;;17.00;9.30;;;;;;;3.66;100.00;95129.81;5049227;28;20029;-77
2024/01/05 02:56:34;;;;;;;10.38;8.63;;;;;;;3.63;100.00;95116.19;5050991;28;20486;-78
2024/01/05 02:58:59;;;;;;;11.93;7.35;;;;;;;3.66;100.00;95113.38;5050590;28;20508;-77
2024/01/05 03:01:25;;;;;;;9.90;7.53;;;;;;;3.67;100.00;95117.63;5047272;28;20026;-77
2024/01/05 03:03:51;;;;;;;11.68;9.93;;;;;;;3.68;100.00;95117.53;5054520;28;20028;-76
2024/01/05 03:06:17;;;;;;;10.88;8.18;;;;;;;3.68;100.00;95117.53;5048119;28;20029;-76
2024/01/05 03:08:43;;;;;;;9.93;7.15;;;;;;;3.69;100.00;95116.59;5054089;28;20032;-77
2024/01/05 03:11:08;;;;;;;11.98;8.60;;;;;;;3.71;100.00;95114.69;5049585;28;20069;-77
2024/01/05 03:13:34;;;;;;;10.27;8.27;;;;;;;3.73;100.00;95112.81;5048545;28;20021;-77
2024/01/05 03:16:00;;;;;;;12.75;10.10;;;;;;;3.90;100.00;95113.31;5052561;28;20560;-76
2024/01/05 03:18:25;;;;;;;11.63;7.88;;;;;;;3.78;100.00;95115.06;5043924;28;20033;-77
2024/01/05 03:20:51;;;;;;;14.02;8.25;;;;;;;3.77;100.00;95108.19;5053220;28;20450;-76
2024/01/05 03:23:16;;;;;;;11.20;9.93;;;;;;;3.78;100.00;95111.63;5049774;28;20248;-77
2024/01/05 03:25:43;;;;;;;11.27;8.45;;;;;;;3.83;100.00;95104.28;5049909;28;20029;-77
2024/01/05 03:28:10;;;;;;;14.07;12.02;;;;;;;3.80;100.00;95101.91;5053969;28;20090;-77
2024/01/05 03:30:36;;;;;;;11.55;10.30;;;;;;;3.77;100.00;95091.75;5052563;28;20050;-77
2024/01/05 03:33:02;;;;;;;10.23;8.35;;;;;;;3.74;100.00;95082.38;5051062;28;20772;-76
2024/01/05 03:35:27;;;;;;;12.20;9.30;;;;;;;3.75;100.00;95083.22;5050915;28;20021;-77
2024/01/05 03:37:53;;;;;;;15.25;13.10;;;;;;;3.74;100.00;95084.97;5054721;28;20032;-77
2024/01/05 03:40:18;;;;;;;10.40;8.98;;;;;;;3.72;100.00;95082.50;5050565;28;20025;-77
2024/01/05 03:42:43;;;;;;;10.85;8.93;;;;;;;3.73;100.00;95070.28;5043980;28;20033;-77
2024/01/05 03:45:09;;;;;;;10.13;7.80;;;;;;;3.80;100.00;95068.06;5043699;28;20100;-76
2024/01/05 03:47:34;;;;;;;13.40;11.05;;;;;;;3.82;100.00;95069.63;5053295;28;20496;-77
2024/01/05 03:50:00;;;;;;;10.48;9.43;;;;;;;3.77;100.00;95056.13;5047976;28;20026;-77
2024/01/05 03:52:25;;;;;;;11.23;9.27;;;;;;;3.77;100.00;95050.06;5047750;28;20052;-77
2024/01/05 03:54:50;;;;;;;8.80;7.88;;;;;;;3.80;100.00;95036.81;5048233;28;20014;-77
2024/01/05 03:57:16;;;;;;;11.57;7.57;;;;;;;3.83;100.00;95033.97;5050439;28;20033;-77
2024/01/05 03:59:44;;;;;;;14.93;6.90;;;;;;;3.83;100.00;95029.63;5053500;28;20052;-77
2024/01/05 04:02:09;;;;;;;7.95;6.55;;;;;;;3.83;100.00;95023.56;5048896;28;20108;-77
2024/01/05 04:04:35;;;;;;;10.38;6.15;;;;;;;3.81;100.00;95025.47;5046735;28;20056;-77
2024/01/05 04:07:00;;;;;;;19.77;12.93;;;;;;;3.81;100.00;95015.88;5051160;28;20029;-77
2024/01/05 04:09:25;;;;;;;12.40;8.05;;;;;;;3.79;100.00;95028.19;5046748;28;20494;-77
2024/01/05 04:11:51;;;;;;;10.75;9.70;;;;;;;3.80;100.00;95019.44;5050238;28;20029;-76
2024/01/05 04:14:17;;;;;;;9.75;8.85;;;;;;;3.83;100.00;95018.34;5046831;28;20048;-77
2024/01/05 04:16:42;;;;;;;9.93;8.98;;;;;;;3.87;100.00;95023.22;5048511;28;20040;-77
2024/01/05 04:19:08;;;;;;;10.20;9.23;;;;;;;3.86;100.00;95018.97;5047598;28;20025;-76
2024/01/05 04:21:33;;;;;;;12.35;9.07;;;;;;;3.89;100.00;95012.69;5052300;28;20098;-77
2024/01/05 04:23:59;;;;;;;10.93;9.82;;;;;;;3.87;100.00;95019.81;5051472;28;20172;-78
2024/01/05 04:26:25;;;;;;;11.32;10.23;;;;;;;3.87;100.00;95022.41;5050837;28;20021;-77
2024/01/05 04:28:51;;;;;;;11.63;9.90;;;;;;;3.90;100.00;95023.94;5054292;28;20143;-76
2024/01/05 04:31:16;;;;;;;10.32;9.32;;;;;;;3.91;100.00;95026.44;5054668;28;20028;-77
2024/01/05 04:33:42;;;;;;;8.88;6.85;;;;;;;3.87;100.00;95025.00;5054533;28;20017;-78
2024/01/05 04:36:07;;;;;;;12.93;11.38;;;;;;;3.81;100.00;95025.47;5053111;28;20458;-78
2024/01/05 04:38:34;;;;;;;14.20;11.35;;;;;;;3.80;100.00;95027.25;5046361;28;20024;-78
2024/01/05 04:41:00;;;;;;;12.50;10.57;;;;;;;3.86;100.00;95037.19;5050580;28;20407;-78
2024/01/05 04:43:25;;;;;;;8.90;7.50;;;;;;;3.85;100.00;95039.91;5051627;28;20028;-78
2024/01/05 04:45:51;;;;;;;10.85;8.05;;;;;;;3.82;100.00;95034.94;5049978;28;20084;-79
2024/01/05 04:48:16;;;;;;;10.07;7.10;;;;;;;3.83;100.00;95033.97;5052535;28;20040;-79
2024/01/05 04:50:42;;;;;;;9.43;6.45;;;;;;;3.92;100.00;95035.91;5051000;28;20025;-79
2024/01/05 04:53:07;;;;;;;8.77;6.80;;;;;;;3.89;100.00;95025.72;5046210;28;20501;-80
2024/01/05 04:55:33;;;;;;;8.52;7.32;;;;;;;3.81;100.00;95034.13;5048073;28;20037;-79
2024/01/05 04:57:58;;;;;;;11.13;8.40;;;;;;;3.82;100.00;95037.53;5045995;28;20371;-79
2024/01/05 05:00:23;;;;;;;11.55;6.53;;;;;;;3.82;100.00;95045.34;5045806;28;20112;-80
2024/01/05 05:02:49;;;;;;;7.32;6.55;;;;;;;3.75;100.00;95041.56;5054065;28;20056;-79
2024/01/05 05:05:14;;;;;;;7.90;6.97;;;;;;;3.79;100.00;95042.97;5049377;28;20029;-79
2024/01/05 05:07:40;;;;;;;8.75;6.60;;;;;;;3.74;100.00;95040.72;5051788;28;20111;-78
2024/01/05 05:10:05;;;;;;;11.90;6.95;;;;;;;3.71;100.00;95041.78;5054064;28;20047;-77
2024/01/05 05:12:31;;;;;;;14.43;6.22;;;;;;;3.75;100.00;95036.34;5050352;28;20034;-76
2024/01/05 05:14:56;;;;;;;8.68;5.57;;;;;;;3.77;100.00;95024.03;5049449;28;20031;-76
2024/01/05 05:17:22;;;;;;;12.27;7.18;;;;;;;3.75;100.00;95031.13;5052125;28;20473;-78
2024/01/05 05:19:47;;;;;;;11.02;7.65;;;;;;;3.60;100.00;95027.94;5051958;28;20067;-78
2024/01/05 05:22:13;;;;;;;10.80;7.07;;;;;;;3.60;100.00;95038.34;5048286;28;20021;-76
2024/01/05 05:24:39;;;;;;;12.30;6.57;;;;;;;3.53;100.00;95038.78;5046445;28;20028;-78
2024/01/05 05:27:04;;;;;;;8.70;6.22;;;;;;;3.55;100.00;95039.50;5049385;28;20032;-78
2024/01/05 05:29:29;;;;;;;13.18;8.63;;;;;;;3.62;100.00;95039.03;5049702;28;20025;-78
2024/01/05 05:31:55;;;;;;;12.50;7.85;;;;;;;3.51;100.00;95035.47;5042144;28;20021;-78
2024/01/05 05:34:20;;;;;;;9.88;6.43;;;;;;;3.49;100.00;95031.34;5048819;28;20025;-78
2024/01/05 05:36:46;;;;;;;12.63;8.50;;;;;;;3.51;100.00;95037.25;5042465;28;20060;-77
2024/01/05 05:39:11;;;;;;;9.07;6.95;;;;;;;3.54;100.00;95050.03;5052020;28;20084;-77
2024/01/05 05:41:37;;;;;;;12.10;8.65;;;;;;;3.52;100.00;95047.53;5048548;28;20024;-78
2024/01/05 05:44:03;;;;;;;13.68;8.18;;;;;;;3.55;100.00;95052.53;5050056;28;20078;-77
2024/01/05 05:46:29;;;;;;;11.93;8.90;;;;;;;3.56;100.00;95051.59;5048994;28;20075;-77
2024/01/05 05:48:54;;;;;;;8.18;5.95;;;;;;;3.54;100.00;95065.66;5052113;28;20045;-78
2024/01/05 05:51:19;;;;;;;11.20;6.20;;;;;;;3.59;100.00;95058.31;5050272;28;20028;-78
2024/01/05 05:53:45;;;;;;;11.40;6.43;;;;;;;3.60;100.00;95056.56;5050009;28;20497;-77
2024/01/05 05:56:10;;;;;;;9.35;6.57;;;;;;;3.65;100.00;95057.88;5043793;28;20055;-77
2024/01/05 05:58:35;;;;;;;8.57;6.30;;;;;;;3.65;100.00;95054.44;5039719;28;20041;-76
2024/01/05 06:01:01;;;;;;;9.20;6.75;;;;;;;3.55;100.00;95056.88;5051246;28;20124;-77
2024/01/05 06:03:26;;;;;;;13.45;8.82;;;;;;;3.52;100.00;95057.13;5050499;28;20039;-78
2024/01/05 06:05:51;;;;;;;12.00;8.43;;;;;;;3.53;100.00;95059.59;5053051;28;20036;-78
2024/01/05 06:08:17;;;;;;;7.88;7.07;;;;;;;3.57;100.00;95058.44;5047881;28;20031;-77
2024/01/05 06:10:43;;;;;;;8.18;6.90;;;;;;;3.61;100.00;95058.22;5050990;28;20028;-78
2024/01/05 06:13:09;;;;;;;8.18;6.32;;;;;;;3.61;100.00;95066.84;5053763;28;20028;-78
2024/01/05 06:15:34;;;;;;;7.95;6.55;;;;;;;3.66;100.00;95064.75;5052303;28;20033;-78
2024/01/05 06:17:59;;;;;;;8.50;5.90;;;;;;;3.67;100.00;95061.19;5056062;28;20033;-78
2024/01/05 06:20:25;;;;;;;5.78;5.10;;;;;;;3.68;100.00;95057.66;5052959;28;20473;-77
2024/01/05 06:22:50;;;;;;;8.50;6.45;;;;;;;3.70;100.00;95054.91;5054937;28;20021;-77
2024/01/05 06:25:16;;;;;;;7.03;5.28;;;;;;;3.64;100.00;95045.78;5055723;28;20107;-77
2024/01/05 06:27:41;;;;;;;9.32;7.28;;;;;;;3.64;100.00;95037.16;5055011;28;20039;-78
2024/01/05 06:30:10;;;;;;;19.58;13.60;;;;;;;3.64;100.00;95034.56;5052012;28;20021;-77
2024/01/05 06:32:37;;;;;;;9.68;6.68;;;;;;;3.70;100.00;95029.72;5055116;28;20111;-77
2024/01/05 06:35:07;;;;;;;9.13;7.45;;;;;;;3.75;100.00;95031.94;5053663;28;20029;-78
2024/01/05 06:37:32;;;;;;;9.63;6.35;;;;;;;3.80;100.00;95031.63;5043217;28;20025;-78
2024/01/05 06:39:58;;;;;;;5.10;3.28;;;;;;;3.83;100.00;95029.63;5054031;28;20044;-77
2024/01/05 06:42:23;;;;;;;4.68;3.70;;;;;;;3.93;100.00;95018.47;5049153;28;20029;-77
2024/01/05 06:44:50;;;;;;;3.38;2.75;;;;;;;3.94;100.00;95015.78;5053298;28;20045;-77
2024/01/05 06:47:16;;;;;;;6.13;2.80;;;;;;;4.03;100.00;95019.44;5054003;28;20045;-77
2024/01/05 06:49:42;;;;;;;4.55;2.90;;;;;;;3.97;100.00;95018.13;5052218;28;20039;-77
2024/01/05 06:52:07;;;;;;;3.53;3.20;;;;;;;3.99;100.00;95013.63;5058043;28;20423;-77
2024/01/05 06:54:34;;;;;;;4.20;2.65;;;;;;;3.98;100.00;95004.16;5052342;28;20029;-77
2024/01/05 06:56:59;;;;;;;3.45;3.15;;;;;;;4.00;100.00;95004.88;5048345;28;20104;-77
2024/01/05 06:59:30;;;;;;;4.38;2.83;;;;;;;4.04;100.00;94999.44;5050440;28;20144;-77
2024/01/05 07:01:55;;;;;;;2.83;2.50;;;;;;;4.01;100.00;95005.72;5050817;28;20036;-75
2024/01/05 07:04:21;;;;;;;4.43;2.92;;;;;;;4.00;100.00;95010.09;5051639;28;20021;-77
2024/01/05 07:06:46;;;;;;;7.53;3.72;;;;;;;4.00;100.00;95014.47;5055110;28;20040;-76
2024/01/05 07:09:13;;;;;;;3.70;3.40;;;;;;;3.98;100.00;95011.97;5053822;28;20104;-75
2024/01/05 07:11:39;;;;;;;10.65;9.75;;;;;;;4.13;100.00;95012.56;5045419;28;20112;-76
2024/01/05 07:14:04;;;;;;;9.05;8.00;;;;;;;4.01;100.00;95014.34;5066338;28;20052;-76
2024/01/05 07:16:30;;;;;;;7.47;6.25;;;;;;;3.97;100.00;95009.47;5042789;28;20108;-75
2024/01/05 07:18:55;;;;;;;6.95;5.05;;;;;;;3.90;100.00;95011.75;5051286;28;20117;-75
2024/01/05 07:21:21;;;;;;;6.15;5.55;;;;;;;3.92;100.00;95011.63;5053663;28;20017;-75
2024/01/05 07:23:46;;;;;;;5.35;4.72;;;;;;;3.91;100.00;95009.97;5052754;28;20508;-74
2024/01/05 07:26:12;;;;;;;8.98;4.97;;;;;;;3.88;100.00;95013.66;5050999;28;20029;-74
2024/01/05 07:28:37;;;;;;;4.88;4.32;;;;;;;3.83;100.00;95011.38;5047031;28;20162;-74
2024/01/05 07:31:05;;;;;;;6.35;5.32;;;;;;;3.84;100.00;94996.56;5051350;28;20030;-74
2024/01/05 07:33:31;;;;;;;5.55;5.00;;;;;;;3.81;100.00;95002.03;5047950;28;20167;-75
2024/01/05 07:35:57;;;;;;;6.20;5.60;;;;;;;3.83;100.00;94997.53;5044549;28;20089;-75
2024/01/05 07:38:22;;;;;;;5.75;5.07;;;;;;;3.81;100.00;95002.03;5044312;28;20060;-75
2024/01/05 07:40:48;;;;;;;6.30;5.47;;;;;;;3.80;100.00;94996.00;5049888;28;20064;-75
2024/01/05 07:43:13;;;;;;;5.57;5.07;;;;;;;3.84;100.00;94994.81;5050589;28;20035;-73
2024/01/05 07:45:39;;;;;;;7.85;5.10;;;;;;;3.77;100.00;94998.00;5045387;28;20033;-73
2024/01/05 07:48:05;;;;;;;11.18;5.45;;;;;;;3.78;100.00;94994.44;5043515;28;20045;-73
2024/01/05 07:50:31;;;;;;;9.23;6.90;;;;;;;3.83;100.00;94993.16;5048769;28;20029;-73
2024/01/05 07:52:56;;;;;;;8.75;6.38;;;;;;;3.77;100.00;94993.63;5044359;28;20625;-73
2024/01/05 07:55:22;;;;;;;7.05;6.30;;;;;;;3.71;100.00;94989.72;5041459;28;20479;-76
2024/01/05 07:57:47;;;;;;;8.30;6.38;;;;;;;3.72;100.00;94986.16;5049882;28;20044;-73
2024/01/05 08:00:13;;;;;;;8.15;7.30;;;;;;;3.72;100.00;94978.34;5048865;28;20032;-74
2024/01/05 08:02:39;;;;;;;7.03;6.22;;;;;;;3.71;100.00;94981.91;5049524;28;20059;-75
2024/01/05 08:05:05;;;;;;;9.68;7.72;;;;;;;3.77;100.00;94978.00;5043265;28;20748;-74
2024/01/05 08:07:30;;;;;;;41.47;28.75;;;;;;;3.73;100.00;94981.78;5045058;28;20559;-74
2024/01/05 08:09:56;;;;;;;44.80;25.63;;;;;;;3.73;100.00;94992.19;5044592;28;20108;-73
2024/01/05 08:12:22;;;;;;;36.30;29.13;;;;;;;3.76;100.00;94988.53;5044241;28;20029;-73
2024/01/05 08:14:47;;;;;;;43.13;33.17;;;;;;;3.75;100.00;94982.47;5044812;28;20021;-74
2024/01/05 08:17:13;;;;;;;21.67;14.85;;;;;;;3.75;100.00;94990.28;5046294;28;20473;-75
2024/01/05 08:19:38;;;;;;;20.02;14.32;;;;;;;3.76;100.00;94980.72;5039360;28;20112;-75
2024/01/05 08:22:04;;;;;;;13.52;11.82;;;;;;;3.79;100.00;94983.94;5048129;28;20028;-75
2024/01/05 08:24:29;;;;;;;13.30;11.90;;;;;;;3.79;100.00;94983.09;5048783;28;20651;-75
2024/01/05 08:26:55;;;;;;;29.02;21.70;;;;;;;3.75;100.00;94979.06;5045330;28;20052;-76
2024/01/05 08:29:21;;;;;;;34.97;30.80;;;;;;;3.72;100.00;94983.56;5047867;28;20020;-76
2024/01/05 08:31:49;;;;;;;31.08;26.25;;;;;;;3.71;100.00;94976.69;5046928;28;20081;-76
2024/01/05 08:34:14;;;;;;;25.88;21.52;;;;;;;3.69;100.00;94968.19;5040962;28;20021;-76
2024/01/05 08:36:40;;;;;;;23.65;21.40;;;;;;;3.65;100.00;94964.16;5043101;28;20090;-76
2024/01/05 08:39:06;;;;;;;15.60;14.10;;;;;;;3.66;100.00;94965.81;5043038;28;20068;-76
2024/01/05 08:41:31;;;;;;;22.08;18.38;;;;;;;3.66;100.00;94968.41;5046437;28;20502;-76
2024/01/05 08:43:57;;;;;;;10.98;10.07;;;;;;;3.67;100.00;94975.28;5049805;28;20116;-76
2024/01/05 08:46:22;;;;;;;18.70;16.80;;;;;;;3.74;100.00;94973.00;5050604;28;20067;-73
2024/01/05 08:48:48;;;;;;;26.42;20.45;;;;;;;3.67;100.00;94972.69;5045461;28;20037;-74
2024/01/05 08:51:14;;;;;;;11.20;10.02;;;;;;;3.65;100.00;94976.34;5043230;28;20036;-75
2024/01/05 08:53:41;;;;;;;23.98;21.77;;;;;;;3.62;100.00;94974.78;5040647;28;20071;-78
2024/01/05 08:56:08;;;;;;;16.92;14.23;;;;;;;3.58;100.00;94979.41;5042293;28;20029;-73
2024/01/05 08:58:33;;;;;;;10.10;8.57;;;;;;;3.70;100.00;94972.44;5040738;28;20104;-75
2024/01/05 09:00:58;;;;;;;7.40;6.60;;;;;;;3.69;100.00;94973.38;5044997;28;20060;-73
2024/01/05 09:03:24;;;;;;;8.25;7.43;;;;;;;3.67;100.00;94975.28;5048214;28;20515;-75
2024/01/05 09:05:50;;;;;;;12.35;10.23;;;;;;;3.65;100.00;94979.78;5048692;28;20020;-75
2024/01/05 09:08:16;;;;;;;13.95;12.27;;;;;;;3.63;100.00;94976.44;5039072;28;20021;-75
2024/01/05 09:10:41;;;;;;;21.67;17.38;;;;;;;3.61;100.00;94978.34;5045797;28;20028;-75
2024/01/05 09:13:07;;;;;;;13.00;11.70;;;;;;;3.63;100.00;94979.03;5050538;28;20028;-76
2024/01/05 09:15:32;;;;;;;10.35;9.13;;;;;;;3.62;100.00;94982.59;5046530;28;20040;-76
2024/01/05 09:17:57;;;;;;;9.90;6.30;;;;;;;3.63;100.00;94981.66;5045681;28;20159;-74
2024/01/05 09:20:23;;;;;;;12.90;11.70;;;;;;;3.64;100.00;94977.28;5047595;28;20017;-74
2024/01/05 09:22:49;;;;;;;9.73;8.73;;;;;;;3.68;100.00;94969.13;5045171;28;20021;-75
2024/01/05 09:25:14;;;;;;;7.80;7.00;;;;;;;3.65;100.00;94974.56;5042589;28;20083;-74
2024/01/05 09:27:39;;;;;;;11.05;8.68;;;;;;;3.61;100.00;94982.72;5039575;28;20585;-75
2024/01/05 09:30:06;;;;;;;9.88;8.98;;;;;;;3.59;100.00;94985.44;5049387;28;20534;-75
2024/01/05 09:32:31;;;;;;;11.00;9.00;;;;;;;3.61;100.00;94983.53;5046148;28;20121;-76
2024/01/05 09:34:57;;;;;;;14.70;13.32;;;;;;;3.67;100.00;94984.84;5044028;28;20017;-75
2024/01/05 09:37:22;;;;;;;29.60;26.48;;;;;;;3.67;100.00;94982.25;5046496;28;20032;-75
2024/01/05 09:39:48;;;;;;;18.85;15.90;;;;;;;3.61;100.00;94983.53;5046429;28;20060;-74
2024/01/05 09:42:13;;;;;;;6.80;6.10;;;;;;;3.66;100.00;94983.19;5046424;28;20075;-74
2024/01/05 09:44:40;;;;;;;7.50;6.30;;;;;;;3.76;100.00;94981.56;5047199;28;20029;-73
2024/01/05 09:47:06;;;;;;;6.93;6.13;;;;;;;3.80;100.00;94976.94;5044699;28;20048;-72
2024/01/05 09:49:39;;;;;;;13.10;10.13;;;;;;;3.80;100.00;94982.13;5042928;28;20029;-73
2024/01/05 09:52:05;;;;;;;13.73;10.98;;;;;;;3.79;100.00;94981.31;5044415;28;20043;-73
2024/01/05 09:54:30;;;;;;;14.00;12.65;;;;;;;3.68;100.00;94978.69;5046082;28;20553;-73
2024/01/05 09:56:56;;;;;;;9.52;8.68;;;;;;;3.63;100.00;94988.63;5045607;28;20055;-74
2024/01/05 09:59:24;;;;;;;7.10;6.50;;;;;;;3.58;100.00;94984.63;5049657;28;20017;-73
2024/01/05 10:01:50;;;;;;;17.42;14.43;;;;;;;3.58;100.00;94987.22;5044531;28;20138;-73
2024/01/05 10:04:16;;;;;;;11.60;10.40;;;;;;;3.60;100.00;94984.47;5048285;28;20032;-73
2024/01/05 10:06:41;;;;;;;13.05;10.98;;;;;;;3.59;100.00;94982.81;5047502;28;20028;-73
2024/01/05 10:09:07;;;;;;;7.68;7.05;;;;;;;3.60;100.00;94973.25;5047489;28;20025;-73
2024/01/05 10:11:41;;;;;;;6.00;5.60;;;;;;;3.64;100.00;94975.50;5049057;28;20029;-74
2024/01/05 10:14:11;;;;;;;6.70;6.03;;;;;;;3.60;100.00;94979.28;5048062;28;20100;-74
2024/01/05 10:16:39;;;;;;;6.20;5.60;;;;;;;3.58;100.00;94974.22;5047163;28;20206;-73
2024/01/05 10:19:14;;;;;;;6.63;6.05;;;;;;;3.60;100.00;94971.47;5041003;28;20032;-73
2024/01/05 10:21:41;;;;;;;8.77;7.57;;;;;;;3.51;100.00;94982.59;5040343;28;20059;-73
2024/01/05 10:24:26;;;;;;;12.52;9.82;;;;;;;3.47;100.00;94983.78;5045588;28;20108;-73
2024/01/05 10:27:11;;;;;;;15.70;12.63;;;;;;;3.47;100.00;94976.78;5046649;28;20116;-73
2024/01/05 10:29:38;;;;;;;13.77;12.37;;;;;;;3.41;100.00;94972.84;5040530;28;20013;-73
2024/01/05 10:32:13;;;;;;;10.13;9.23;;;;;;;3.41;100.00;94972.84;5042716;28;20351;-73
2024/01/05 10:34:46;;;;;;;14.48;12.98;;;;;;;3.44;100.00;94979.63;5045419;28;20029;-73
2024/01/05 10:37:13;;;;;;;13.82;12.38;;;;;;;3.47;100.00;94973.38;5043977;28;20162;-73
2024/01/05 10:39:44;;;;;;;16.65;14.18;;;;;;;3.48;100.00;94969.81;5048222;28;20118;-73
2024/01/05 10:42:27;;;;;;;16.30;14.43;;;;;;;3.49;100.00;94968.88;5049116;28;20031;-73
2024/01/05 10:44:57;;;;;;;12.65;11.45;;;;;;;3.51;100.00;94966.97;5036984;28;20031;-73
2024/01/05 10:47:28;;;;;;;7.80;7.10;;;;;;;3.51;100.00;94965.19;5042299;28;20477;-73
2024/01/05 10:49:55;;;;;;;10.38;7.18;;;;;;;3.51;100.00;94957.38;5042331;28;20029;-73
2024/01/05 10:52:26;;;;;;;11.23;10.13;;;;;;;3.53;100.00;94962.47;5046273;28;20032;-74
2024/01/05 10:54:52;;;;;;;11.13;10.02;;;;;;;3.51;100.00;94954.78;5044994;28;20552;-73
2024/01/05 10:57:19;;;;;;;10.40;9.50;;;;;;;3.54;100.00;94935.50;5041828;28;20025;-74
2024/01/05 10:59:54;;;;;;;9.23;8.43;;;;;;;3.57;100.00;94932.66;5051069;28;20027;-73
2024/01/05 11:02:38;;;;;;;5.38;4.97;;;;;;;3.55;100.00;94935.41;5047394;28;20528;-75
2024/01/05 11:05:11;;;;;;;6.60;5.38;;;;;;;3.64;100.00;94933.03;5045383;28;20580;-75
2024/01/05 11:07:41;;;;;;;6.22;5.70;;;;;;;3.65;100.00;94926.88;5044984;28;20021;-75
2024/01/05 11:10:06;;;;;;;8.23;7.15;;;;;;;3.57;100.00;94930.06;5044582;28;20025;-76
2024/01/05 11:12:41;;;;;;;20.08;18.08;;;;;;;3.57;100.00;94923.09;5043776;28;20037;-77
2024/01/05 11:15:18;;;;;;;7.60;6.97;;;;;;;3.60;100.00;94916.00;5044526;28;20017;-77
2024/01/05 11:18:08;;;;;;;8.88;8.02;;;;;;;3.56;100.00;94925.81;5045476;28;20287;-78
2024/01/05 11:20:42;;;;;;;11.43;9.38;;;;;;;3.52;100.00;94922.59;5051738;28;20033;-79